createdAt,value
2022-09-23T00:00:59.755Z,1.03
2022-09-23T00:03:32.550Z,2.37
2022-09-23T00:06:10.664Z,1.67
2022-09-23T00:08:42.162Z,3.90
2022-09-23T00:11:16.370Z,1.90
2022-09-23T00:13:50.611Z,1.90
2022-09-23T00:16:25.397Z,1.20
2022-09-23T00:18:57.047Z,1.00
2022-09-23T00:21:28.586Z,6.30
2022-09-23T00:23:59.884Z,2.33
2022-09-23T00:26:31.142Z,1.63
2022-09-23T00:29:02.489Z,0.87
2022-09-23T00:31:33.774Z,1.50
2022-09-23T00:34:05.033Z,1.17
2022-09-23T00:36:36.294Z,3.50
2022-09-23T00:39:07.687Z,1.47
2022-09-23T00:41:39.445Z,3.67
2022-09-23T00:44:59.235Z,2.30
2022-09-23T00:47:44.497Z,3.00
2022-09-23T00:50:27.087Z,1.60
2022-09-23T00:53:01.884Z,1.77
2022-09-23T00:55:39.095Z,2.00
2022-09-23T00:58:14.838Z,4.60
2022-09-23T01:00:46.846Z,2.00
2022-09-23T01:03:19.606Z,1.10
2022-09-23T01:05:52.169Z,1.33
2022-09-23T01:08:24.828Z,1.87
2022-09-23T01:11:02.746Z,3.37
2022-09-23T01:13:49.842Z,3.70
2022-09-23T01:16:54.655Z,1.53
2022-09-23T01:19:56.935Z,1.43
2022-09-23T01:22:44.305Z,5.63
2022-09-23T01:25:36.709Z,4.87
2022-09-23T01:28:33.272Z,1.40
2022-09-23T01:31:10.399Z,3.17
2022-09-23T01:34:02.118Z,1.40
2022-09-23T01:36:42.782Z,2.00
2022-09-23T01:39:28.030Z,1.70
2022-09-23T01:42:25.681Z,4.47
2022-09-23T01:45:07.052Z,3.50
2022-09-23T01:47:54.926Z,2.70
2022-09-23T01:50:50.405Z,3.20
2022-09-23T01:53:28.698Z,3.67
2022-09-23T01:56:04.490Z,3.10
2022-09-23T01:59:02.191Z,1.90
2022-09-23T02:01:39.161Z,2.60
2022-09-23T02:04:17.404Z,2.57
2022-09-23T02:06:55.417Z,4.00
2022-09-23T02:09:35.229Z,1.67
2022-09-23T02:12:14.692Z,2.13
2022-09-23T02:14:53.302Z,1.70
2022-09-23T02:17:31.910Z,3.40
2022-09-23T02:20:06.976Z,3.00
2022-09-23T02:22:54.852Z,5.10
2022-09-23T02:25:39.138Z,1.87
2022-09-23T02:28:24.146Z,3.90
2022-09-23T02:31:08.163Z,3.57
2022-09-23T02:33:46.279Z,5.07
2022-09-23T02:36:46.038Z,4.77
2022-09-23T02:39:20.602Z,3.60
2022-09-23T02:42:00.742Z,2.53
2022-09-23T02:44:32.886Z,2.67
2022-09-23T02:47:04.484Z,4.63
2022-09-23T02:49:36.489Z,1.97
2022-09-23T02:52:07.933Z,3.10
2022-09-23T02:54:40.506Z,4.30
2022-09-23T02:57:11.769Z,3.33
2022-09-23T02:59:43.637Z,5.90
2022-09-23T03:02:44.708Z,2.40
2022-09-23T03:05:28.020Z,2.70
2022-09-23T03:08:18.894Z,3.90
2022-09-23T03:11:06.826Z,3.27
2022-09-23T03:13:46.813Z,5.77
2022-09-23T03:16:28.292Z,4.43
2022-09-23T03:19:17.953Z,2.00
2022-09-23T03:21:58.462Z,1.97
2022-09-23T03:24:34.536Z,2.27
2022-09-23T03:27:13.735Z,3.67
2022-09-23T03:29:48.681Z,2.23
2022-09-23T03:32:23.503Z,2.63
2022-09-23T03:34:59.930Z,2.07
2022-09-23T03:37:58.756Z,2.43
2022-09-23T03:40:35.554Z,2.63
2022-09-23T03:43:07.642Z,1.80
2022-09-23T03:45:39.977Z,5.20
2022-09-23T03:48:11.281Z,2.57
2022-09-23T03:50:42.621Z,5.03
2022-09-23T03:53:14.093Z,1.37
2022-09-23T03:55:46.521Z,2.57
2022-09-23T03:58:18.045Z,2.33
2022-09-23T04:00:49.631Z,1.90
2022-09-23T04:03:22.287Z,4.33
2022-09-23T04:05:53.649Z,1.87
2022-09-23T04:08:24.958Z,3.73
2022-09-23T04:11:01.413Z,2.27
2022-09-23T04:13:32.758Z,2.30
2022-09-23T04:16:04.222Z,4.17
2022-09-23T04:18:35.562Z,3.87
2022-09-23T04:21:06.829Z,3.40
2022-09-23T04:23:38.259Z,3.80
2022-09-23T04:26:09.888Z,2.23
2022-09-23T04:28:41.334Z,2.90
2022-09-23T04:31:12.869Z,2.40
2022-09-23T04:33:44.213Z,2.43
2022-09-23T04:36:15.559Z,1.87
2022-09-23T04:38:48.616Z,2.20
2022-09-23T04:41:21.769Z,1.90
2022-09-23T04:43:53.210Z,2.30
2022-09-23T04:46:24.758Z,1.90
2022-09-23T04:48:56.710Z,4.43
2022-09-23T04:51:28.089Z,4.13
2022-09-23T04:53:59.429Z,2.90
2022-09-23T04:56:34.047Z,3.73
2022-09-23T04:59:05.641Z,2.30
2022-09-23T05:01:38.289Z,6.03
2022-09-23T05:04:14.240Z,2.10
2022-09-23T05:06:45.618Z,2.55
2022-09-23T05:09:17.810Z,2.63
2022-09-23T05:11:49.233Z,2.80
2022-09-23T05:14:20.745Z,2.77
2022-09-23T05:16:52.169Z,3.67
2022-09-23T05:19:23.529Z,3.57
2022-09-23T05:21:55.050Z,2.40
2022-09-23T05:24:29.220Z,3.80
2022-09-23T05:27:02.041Z,2.10
2022-09-23T05:29:34.780Z,2.77
2022-09-23T05:32:06.115Z,2.27
2022-09-23T05:34:37.479Z,4.27
2022-09-23T05:37:08.962Z,4.10
2022-09-23T05:39:40.250Z,3.70
2022-09-23T05:42:12.459Z,3.90
2022-09-23T05:44:44.090Z,2.07
2022-09-23T05:47:15.466Z,2.13
2022-09-23T05:49:59.008Z,3.40
2022-09-23T05:52:31.496Z,2.80
2022-09-23T05:55:03.049Z,3.23
2022-09-23T05:57:34.294Z,2.40
2022-09-23T06:00:06.124Z,4.67
2022-09-23T06:02:37.663Z,4.53
2022-09-23T06:05:09.095Z,3.00
2022-09-23T06:07:40.457Z,6.23
2022-09-23T06:10:12.133Z,2.90
2022-09-23T06:12:44.893Z,3.03
2022-09-23T06:15:16.885Z,4.47
2022-09-23T06:17:51.309Z,1.70
2022-09-23T06:20:22.734Z,2.93
2022-09-23T06:22:55.619Z,2.73
2022-09-23T06:25:27.572Z,2.77
2022-09-23T06:27:59.165Z,3.57
2022-09-23T06:30:30.765Z,3.20
2022-09-23T06:33:02.235Z,2.23
2022-09-23T06:35:33.758Z,2.13
2022-09-23T06:38:05.130Z,3.10
2022-09-23T06:40:36.572Z,2.60
2022-09-23T06:43:08.352Z,2.63
2022-09-23T06:45:39.593Z,3.30
2022-09-23T06:48:11.442Z,3.30
2022-09-23T06:50:42.694Z,2.80
2022-09-23T06:53:14.035Z,3.07
2022-09-23T06:55:45.383Z,3.30
2022-09-23T06:58:16.726Z,3.27
2022-09-23T07:00:47.994Z,2.00
2022-09-23T07:03:19.323Z,4.67
2022-09-23T07:05:55.189Z,4.07
2022-09-23T07:08:27.730Z,2.67
2022-09-23T07:11:01.816Z,3.23
2022-09-23T07:13:33.655Z,1.70
2022-09-23T07:16:05.301Z,3.47
2022-09-23T07:18:37.543Z,4.23
2022-09-23T07:21:15.448Z,2.97
2022-09-23T07:23:50.062Z,4.40
2022-09-23T07:26:22.718Z,2.40
2022-09-23T07:29:04.468Z,2.67
2022-09-23T07:31:39.489Z,3.07
2022-09-23T07:34:11.675Z,2.78
2022-09-23T07:36:43.166Z,3.60
2022-09-23T07:39:14.529Z,2.50
2022-09-23T07:41:45.789Z,1.90
2022-09-23T07:44:19.072Z,1.63
2022-09-23T07:46:50.598Z,5.37
2022-09-23T07:49:22.166Z,1.90
2022-09-23T07:51:53.793Z,3.10
2022-09-23T07:54:29.527Z,2.27
2022-09-23T07:57:01.074Z,4.68
2022-09-23T07:59:32.450Z,4.70
2022-09-23T08:02:04.418Z,2.70
2022-09-23T08:04:36.876Z,3.63
2022-09-23T08:07:08.998Z,5.60
2022-09-23T08:09:42.111Z,1.90
2022-09-23T08:12:16.521Z,4.27
2022-09-23T08:14:47.897Z,3.03
2022-09-23T08:17:19.199Z,4.37
2022-09-23T08:19:50.509Z,4.03
2022-09-23T08:22:22.000Z,2.67
2022-09-23T08:24:55.689Z,3.53
2022-09-23T08:27:29.260Z,4.23
2022-09-23T08:30:00.603Z,2.30
2022-09-23T08:32:32.060Z,2.60
2022-09-23T08:35:03.459Z,3.50
2022-09-23T08:37:34.722Z,3.30
2022-09-23T08:40:06.566Z,2.30
2022-09-23T08:42:40.694Z,2.83
2022-09-23T08:45:20.932Z,3.07
2022-09-23T08:48:10.816Z,2.43
2022-09-23T08:50:59.805Z,2.30
2022-09-23T08:53:38.060Z,2.67
2022-09-23T08:56:18.318Z,4.33
2022-09-23T08:59:00.016Z,1.83
2022-09-23T09:01:51.771Z,2.00
2022-09-23T09:04:28.264Z,3.53
2022-09-23T09:10:23.334Z,3.23
2022-09-23T09:13:07.505Z,4.40
2022-09-23T09:15:55.119Z,2.23
2022-09-23T09:18:31.056Z,2.00
2022-09-23T09:21:09.868Z,3.42
2022-09-23T09:23:59.512Z,3.83
2022-09-23T09:26:34.857Z,5.47
2022-09-23T09:29:31.262Z,3.38
2022-09-23T09:32:22.530Z,3.15
2022-09-23T09:34:59.669Z,3.63
2022-09-23T09:37:35.798Z,2.15
2022-09-23T09:40:11.768Z,2.70
2022-09-23T09:45:28.367Z,4.00
2022-09-23T09:48:10.786Z,1.70
2022-09-23T09:50:53.902Z,1.63
2022-09-23T09:53:35.802Z,2.45
2022-09-23T09:56:10.072Z,1.10
2022-09-23T09:58:48.840Z,4.13
2022-09-23T10:01:32.384Z,2.05
2022-09-23T10:04:06.448Z,3.63
2022-09-23T10:06:37.878Z,2.40
2022-09-23T10:09:19.131Z,2.60
2022-09-23T10:12:10.663Z,1.92
2022-09-23T10:14:42.719Z,2.97
2022-09-23T10:17:29.936Z,3.33
2022-09-23T10:20:09.233Z,2.42
2022-09-23T10:22:42.426Z,4.25
2022-09-23T10:25:20.664Z,1.95
2022-09-23T10:27:52.436Z,3.08
2022-09-23T10:30:27.776Z,1.83
2022-09-23T10:32:59.201Z,1.73
2022-09-23T10:35:34.286Z,3.42
2022-09-23T10:38:09.010Z,1.80
2022-09-23T10:41:01.751Z,1.48
2022-09-23T10:44:03.793Z,1.48
2022-09-23T10:46:41.482Z,1.65
2022-09-23T10:49:37.978Z,1.42
2022-09-23T10:52:39.324Z,3.20
2022-09-23T10:55:36.113Z,3.45
2022-09-23T11:01:17.250Z,4.38
2022-09-23T11:03:51.289Z,1.83
2022-09-23T11:07:03.390Z,1.02
2022-09-23T11:10:03.180Z,1.52
2022-09-23T11:12:54.644Z,3.00
2022-09-23T11:15:38.970Z,1.33
2022-09-23T11:18:19.363Z,5.07
2022-09-23T11:21:20.737Z,2.63
2022-09-23T11:24:07.399Z,2.88
2022-09-23T11:26:48.091Z,1.67
2022-09-23T11:29:47.430Z,2.53
2022-09-23T11:32:39.525Z,1.65
2022-09-23T11:35:19.286Z,1.08
2022-09-23T11:38:25.873Z,1.00
2022-09-23T11:41:02.348Z,3.13
2022-09-23T11:43:39.226Z,2.95
2022-09-23T11:46:32.830Z,1.13
2022-09-23T11:49:16.141Z,2.35
2022-09-23T11:52:19.490Z,1.58
2022-09-23T11:55:00.816Z,1.58
2022-09-23T11:57:49.048Z,3.08
2022-09-23T12:00:23.711Z,1.92
2022-09-23T12:03:10.120Z,2.28
2022-09-23T12:05:47.514Z,2.33
2022-09-23T12:08:28.954Z,2.60
2022-09-23T12:11:23.169Z,4.60
2022-09-23T12:14:15.522Z,2.95
2022-09-23T12:16:55.774Z,1.70
2022-09-23T12:19:39.665Z,2.38
2022-09-23T12:22:37.254Z,1.02
2022-09-23T12:25:17.714Z,1.88
2022-09-23T12:27:55.147Z,0.90
2022-09-23T12:30:29.781Z,1.35
2022-09-23T12:33:22.521Z,2.45
2022-09-23T12:36:01.880Z,1.48
2022-09-23T12:38:37.125Z,2.95
2022-09-23T12:41:23.961Z,2.67
2022-09-23T12:43:59.846Z,1.17
2022-09-23T12:46:31.219Z,2.65
2022-09-23T12:49:04.123Z,2.08
2022-09-23T12:51:36.642Z,4.45
2022-09-23T12:54:22.329Z,2.78
2022-09-23T12:56:53.553Z,0.77
2022-09-23T12:59:30.862Z,1.98
2022-09-23T13:02:24.696Z,2.13
2022-09-23T13:05:22.043Z,3.08
2022-09-23T13:08:05.223Z,2.55
2022-09-23T13:10:49.418Z,4.45
2022-09-23T13:13:38.467Z,1.63
2022-09-23T13:16:20.925Z,3.13
2022-09-23T13:18:56.386Z,2.25
2022-09-23T13:21:42.688Z,1.85
2022-09-23T13:24:19.279Z,1.65
2022-09-23T13:27:10.783Z,2.78
2022-09-23T13:29:42.242Z,2.05
2022-09-23T13:32:17.783Z,1.35
2022-09-23T13:35:02.020Z,1.55
2022-09-23T13:37:45.457Z,1.45
2022-09-23T13:40:23.859Z,1.40
2022-09-23T13:43:03.158Z,3.40
2022-09-23T13:45:42.938Z,1.48
2022-09-23T13:48:15.529Z,2.45
2022-09-23T13:50:53.243Z,2.45
2022-09-23T13:53:29.751Z,2.20
2022-09-23T13:56:13.353Z,2.80
2022-09-23T13:58:44.625Z,1.65
2022-09-23T14:01:36.028Z,2.03
2022-09-23T14:04:23.158Z,2.85
2022-09-23T14:06:55.310Z,1.77
2022-09-23T14:09:29.228Z,2.00
2022-09-23T14:12:02.016Z,3.70
2022-09-23T14:14:37.048Z,2.65
2022-09-23T14:17:10.119Z,3.47
2022-09-23T14:19:42.352Z,1.85
2022-09-23T14:22:29.983Z,1.90
2022-09-23T14:25:03.268Z,2.85
2022-09-23T14:27:36.364Z,1.85
2022-09-23T14:30:15.538Z,1.40
2022-09-23T14:32:50.007Z,1.40
2022-09-23T14:35:27.463Z,1.35
2022-09-23T14:38:17.427Z,3.25
2022-09-23T14:41:15.696Z,4.47
2022-09-23T14:43:50.633Z,4.15
2022-09-23T14:46:23.836Z,3.72
2022-09-23T14:49:10.341Z,3.50
2022-09-23T14:51:53.820Z,2.47
2022-09-23T14:54:40.159Z,2.30
2022-09-23T14:57:25.928Z,2.67
2022-09-23T15:00:09.243Z,2.80
2022-09-23T15:02:57.229Z,2.33
2022-09-23T15:05:44.278Z,4.97
2022-09-23T15:08:21.828Z,5.70
2022-09-23T15:10:54.079Z,2.80
2022-09-23T15:13:31.846Z,2.80
2022-09-23T15:16:04.692Z,2.08
2022-09-23T15:18:38.185Z,3.55
2022-09-23T15:21:13.443Z,2.35
2022-09-23T15:23:49.021Z,2.38
2022-09-23T15:26:52.370Z,4.10
2022-09-23T15:29:26.063Z,2.35
2022-09-23T15:31:58.298Z,1.52
2022-09-23T15:34:30.831Z,1.55
2022-09-23T15:37:02.439Z,2.08
2022-09-23T15:39:36.286Z,3.65
2022-09-23T15:42:10.123Z,3.53
2022-09-23T15:44:41.424Z,5.97
2022-09-23T15:47:18.623Z,6.32
2022-09-23T15:49:49.931Z,4.18
2022-09-23T15:52:22.628Z,2.92
2022-09-23T15:54:53.920Z,5.15
2022-09-23T15:57:25.940Z,6.30
2022-09-23T15:59:58.431Z,4.70
2022-09-23T16:02:32.331Z,6.35
2022-09-23T16:05:05.746Z,8.27
2022-09-23T16:07:37.056Z,4.50
2022-09-23T16:10:08.397Z,7.82
2022-09-23T16:12:39.945Z,4.68
2022-09-23T16:15:17.830Z,5.68
2022-09-23T16:17:53.175Z,11.20
2022-09-23T16:20:26.214Z,21.27
2022-09-23T16:23:00.411Z,35.40
2022-09-23T16:25:36.425Z,41.40
2022-09-23T16:28:07.783Z,21.67
2022-09-23T16:30:39.037Z,10.25
2022-09-23T16:33:10.305Z,5.70
2022-09-23T16:35:41.568Z,4.85
2022-09-23T16:38:14.557Z,6.45
2022-09-23T16:40:47.315Z,4.37
2022-09-23T16:43:19.492Z,5.33
2022-09-23T16:45:50.843Z,3.90
2022-09-23T16:48:22.790Z,2.87
2022-09-23T16:50:54.043Z,3.80
2022-09-23T16:53:28.924Z,5.60
2022-09-23T16:56:09.435Z,4.23
2022-09-23T16:58:40.877Z,4.27
2022-09-23T17:01:38.665Z,9.10
2022-09-23T17:04:10.982Z,7.53
2022-09-23T17:06:49.972Z,6.87
2022-09-23T17:09:24.547Z,3.80
2022-09-23T17:12:13.695Z,3.47
2022-09-23T17:14:44.958Z,3.80
2022-09-23T17:17:16.250Z,6.50
2022-09-23T17:19:47.529Z,5.53
2022-09-23T17:22:18.871Z,3.13
2022-09-23T17:24:50.213Z,4.03
2022-09-23T17:27:21.533Z,4.67
2022-09-23T17:29:52.823Z,4.13
2022-09-23T17:32:24.502Z,4.30
2022-09-23T17:34:55.750Z,5.53
2022-09-23T17:37:26.997Z,6.60
2022-09-23T17:39:58.986Z,5.40
2022-09-23T17:42:30.608Z,6.47
2022-09-23T17:45:02.102Z,6.37
2022-09-23T17:47:33.635Z,6.67
2022-09-23T17:50:06.001Z,7.00
2022-09-23T17:52:37.253Z,6.03
2022-09-23T17:55:08.847Z,5.23
2022-09-23T17:57:40.278Z,10.50
2022-09-23T18:00:12.269Z,5.20
2022-09-23T18:02:43.552Z,6.07
2022-09-23T18:05:14.893Z,6.80
2022-09-23T18:07:46.145Z,6.03
2022-09-23T18:10:17.386Z,6.83
2022-09-23T18:12:48.733Z,6.90
2022-09-23T18:15:20.233Z,7.37
2022-09-23T18:17:51.565Z,6.63
2022-09-23T18:20:22.843Z,6.40
2022-09-23T18:22:54.125Z,11.37
2022-09-23T18:25:38.537Z,4.83
2022-09-23T18:28:11.135Z,5.90
2022-09-23T18:30:55.250Z,7.70
2022-09-23T18:33:26.637Z,11.13
2022-09-23T18:36:01.403Z,11.97
2022-09-23T18:38:33.142Z,6.47
2022-09-23T18:41:04.670Z,8.07
2022-09-23T18:43:41.314Z,7.67
2022-09-23T18:46:17.265Z,8.57
2022-09-23T18:49:07.970Z,6.97
2022-09-23T18:51:51.727Z,10.50
2022-09-23T18:54:25.158Z,4.37
2022-09-23T18:56:56.695Z,5.23
2022-09-23T18:59:29.689Z,10.50
2022-09-23T19:02:01.168Z,10.63
2022-09-23T19:04:32.784Z,9.77
2022-09-23T19:07:04.105Z,11.53
2022-09-23T19:09:35.427Z,7.97
2022-09-23T19:12:06.674Z,10.70
2022-09-23T19:14:37.951Z,4.67
2022-09-23T19:17:10.981Z,3.37
2022-09-23T19:19:42.262Z,4.57
2022-09-23T19:22:13.669Z,6.20
2022-09-23T19:24:45.286Z,5.40
2022-09-23T19:27:16.558Z,7.63
2022-09-23T19:29:47.957Z,6.00
2022-09-23T19:32:19.272Z,7.57
2022-09-23T19:34:50.509Z,23.60
2022-09-23T19:37:22.422Z,12.97
2022-09-23T19:39:53.751Z,8.70
2022-09-23T19:42:27.555Z,6.90
2022-09-23T19:44:58.802Z,6.50
2022-09-23T19:47:30.187Z,7.80
2022-09-23T19:50:01.512Z,8.57
2022-09-23T19:52:32.767Z,9.03
2022-09-23T19:55:04.504Z,6.30
2022-09-23T19:57:35.754Z,5.97
2022-09-23T20:00:07.896Z,7.77
2022-09-23T20:02:39.165Z,6.20
2022-09-23T20:05:12.144Z,9.97
2022-09-23T20:07:43.495Z,9.53
2022-09-23T20:10:15.328Z,11.07
2022-09-23T20:12:46.632Z,11.57
2022-09-23T20:15:18.530Z,11.87
2022-09-23T20:17:51.177Z,14.10
2022-09-23T20:20:22.409Z,13.70
2022-09-23T20:22:55.042Z,12.23
2022-09-23T20:25:26.299Z,10.60
2022-09-23T20:27:57.553Z,13.80
2022-09-23T20:30:29.259Z,12.73
2022-09-23T20:33:00.981Z,11.77
2022-09-23T20:35:33.064Z,11.10
2022-09-23T20:38:08.005Z,12.80
2022-09-23T20:40:39.581Z,8.80
2022-09-23T20:43:10.953Z,7.17
2022-09-23T20:45:49.911Z,12.03
2022-09-23T20:48:23.539Z,10.67
2022-09-23T20:51:02.031Z,10.93
2022-09-23T20:53:34.925Z,15.17
2022-09-23T20:56:06.310Z,9.87
2022-09-23T20:58:37.668Z,12.60
2022-09-23T21:01:10.602Z,9.67
2022-09-23T21:03:44.964Z,13.93
2022-09-23T21:06:18.762Z,10.20
2022-09-23T21:08:52.566Z,10.37
2022-09-23T21:11:24.305Z,11.23
2022-09-23T21:13:56.466Z,14.37
2022-09-23T21:16:28.053Z,11.67
2022-09-23T21:18:59.599Z,15.90
2022-09-23T21:21:31.025Z,10.83
2022-09-23T21:24:24.509Z,8.83
2022-09-23T21:26:53.629Z,11.37
2022-09-23T21:29:25.043Z,7.93
2022-09-23T21:31:57.171Z,9.87
2022-09-23T21:34:29.929Z,8.67
2022-09-23T21:37:01.881Z,7.97
2022-09-23T21:39:33.240Z,11.70
2022-09-23T21:42:05.514Z,7.40
2022-09-23T21:44:36.761Z,11.60
2022-09-23T21:47:08.050Z,9.57
2022-09-23T21:49:39.342Z,6.77
2022-09-23T21:52:10.601Z,8.70
2022-09-23T21:54:41.971Z,9.90
2022-09-23T21:57:13.818Z,9.50
2022-09-23T21:59:45.055Z,7.67
2022-09-23T22:02:17.200Z,10.23
2022-09-23T22:04:48.478Z,11.07
2022-09-23T22:07:20.056Z,9.77
2022-09-23T22:09:51.346Z,8.50
2022-09-23T22:12:23.375Z,10.07
2022-09-23T22:14:54.701Z,7.63
2022-09-23T22:17:25.957Z,8.00
2022-09-23T22:19:58.369Z,6.73
2022-09-23T22:22:29.621Z,8.30
2022-09-23T22:25:00.887Z,7.70
2022-09-23T22:27:32.133Z,5.80
2022-09-23T22:30:22.162Z,8.07
2022-09-23T22:32:55.273Z,7.60
2022-09-23T22:35:26.736Z,6.03
2022-09-23T22:38:00.395Z,6.80
2022-09-23T22:40:31.715Z,6.80
2022-09-23T22:43:03.059Z,9.37
2022-09-23T22:45:34.809Z,8.90
2022-09-23T22:48:06.049Z,8.13
2022-09-23T22:50:39.590Z,10.20
2022-09-23T22:53:10.956Z,8.33
2022-09-23T22:55:42.638Z,4.93
2022-09-23T22:58:31.144Z,6.63
2022-09-23T23:01:03.716Z,5.20
2022-09-23T23:03:35.462Z,6.43
2022-09-23T23:06:08.266Z,6.20
2022-09-23T23:08:39.945Z,5.50
2022-09-23T23:11:11.614Z,6.40
2022-09-23T23:13:43.352Z,4.90
2022-09-23T23:16:15.439Z,6.00
2022-09-23T23:18:47.590Z,5.90
2022-09-23T23:21:20.197Z,5.90
2022-09-23T23:23:52.825Z,5.87
2022-09-23T23:26:27.081Z,6.37
2022-09-23T23:28:58.970Z,7.17
2022-09-23T23:31:32.006Z,6.80
2022-09-23T23:34:03.654Z,5.07
2022-09-23T23:36:35.012Z,5.67
2022-09-23T23:39:06.336Z,9.90
2022-09-23T23:41:39.416Z,9.63
2022-09-23T23:44:12.297Z,8.80
2022-09-23T23:46:43.613Z,8.87
2022-09-23T23:49:15.241Z,5.90
2022-09-23T23:51:47.730Z,5.20
2022-09-23T23:54:19.006Z,5.13
2022-09-23T23:56:50.354Z,7.60
2022-09-23T23:59:21.774Z,6.77
